Alveringem, Belgium
Current Conditions -  °F | °C
As of 3:25 PM on Saturday 20 Dec 2014 (Local Time) from EBFN Reporting Station
Broken Clouds Broken Clouds  
Wind Chill: 41°   Ceiling: 4000
Heat Index: 48°   Visibility: 6mi
Dew Point: 37°   Wind: 21mph
Humidity: 66%   Direction: 290°WNW
Pressure: 30.27"   Gusts: NA
Location:  51.01°N, 2.71°E
Report Text: EBFN 201425Z 29018KT 9999 FEW016 BKN040 09/03 Q1025 BLU
Loading
Personal Weather Stations






























Interactive Weather Map New forecast layout! Learn more

10-Day Weather Forecast

Advertisements
Track Severe Weather on mobile